sensor_id;sensor_type;location;lat;lon;timestamp;P1;durP1;ratioP1;P2;durP2;ratioP2
10134;SDS011;5107;48.850;8.924;2023-12-22T00:02:16;6.90;;;2.27;;
10134;SDS011;5107;48.850;8.924;2023-12-22T00:04:41;4.53;;;2.17;;
10134;SDS011;5107;48.850;8.924;2023-12-22T00:07:06;7.30;;;2.50;;
10134;SDS011;5107;48.850;8.924;2023-12-22T00:09:32;5.07;;;1.83;;
10134;SDS011;5107;48.850;8.924;2023-12-22T00:11:57;8.70;;;1.93;;
10134;SDS011;5107;48.850;8.924;2023-12-22T00:14:22;4.17;;;1.80;;
10134;SDS011;5107;48.850;8.924;2023-12-22T00:16:47;3.60;;;1.30;;
10134;SDS011;5107;48.850;8.924;2023-12-22T00:19:13;6.40;;;1.57;;
10134;SDS011;5107;48.850;8.924;2023-12-22T00:21:38;4.90;;;1.60;;
10134;SDS011;5107;48.850;8.924;2023-12-22T00:24:04;4.23;;;1.50;;
10134;SDS011;5107;48.850;8.924;2023-12-22T00:26:29;2.83;;;1.10;;
10134;SDS011;5107;48.850;8.924;2023-12-22T00:28:54;5.33;;;1.50;;
10134;SDS011;5107;48.850;8.924;2023-12-22T00:31:20;5.73;;;1.43;;
10134;SDS011;5107;48.850;8.924;2023-12-22T00:33:47;5.13;;;1.70;;
10134;SDS011;5107;48.850;8.924;2023-12-22T00:36:13;5.73;;;1.60;;
10134;SDS011;5107;48.850;8.924;2023-12-22T00:38:38;5.03;;;1.80;;
10134;SDS011;5107;48.850;8.924;2023-12-22T00:41:03;7.70;;;1.80;;
10134;SDS011;5107;48.850;8.924;2023-12-22T00:43:29;6.10;;;1.60;;
10134;SDS011;5107;48.850;8.924;2023-12-22T00:45:54;3.93;;;1.50;;
10134;SDS011;5107;48.850;8.924;2023-12-22T00:48:21;3.27;;;1.43;;
10134;SDS011;5107;48.850;8.924;2023-12-22T00:50:46;6.83;;;1.77;;
10134;SDS011;5107;48.850;8.924;2023-12-22T00:53:11;3.67;;;1.87;;
10134;SDS011;5107;48.850;8.924;2023-12-22T00:55:37;4.73;;;1.60;;
10134;SDS011;5107;48.850;8.924;2023-12-22T00:58:02;5.90;;;1.43;;
10134;SDS011;5107;48.850;8.924;2023-12-22T01:00:27;5.20;;;1.70;;
10134;SDS011;5107;48.850;8.924;2023-12-22T01:02:53;7.67;;;1.63;;
10134;SDS011;5107;48.850;8.924;2023-12-22T01:05:18;5.53;;;1.80;;
10134;SDS011;5107;48.850;8.924;2023-12-22T01:07:44;3.87;;;1.40;;
10134;SDS011;5107;48.850;8.924;2023-12-22T01:10:09;6.87;;;1.63;;
10134;SDS011;5107;48.850;8.924;2023-12-22T01:12:34;4.20;;;1.50;;
10134;SDS011;5107;48.850;8.924;2023-12-22T01:15:00;3.20;;;1.07;;
10134;SDS011;5107;48.850;8.924;2023-12-22T01:17:25;3.90;;;1.30;;
10134;SDS011;5107;48.850;8.924;2023-12-22T01:19:51;2.43;;;1.17;;
10134;SDS011;5107;48.850;8.924;2023-12-22T01:22:16;2.73;;;1.40;;
10134;SDS011;5107;48.850;8.924;2023-12-22T01:24:41;7.10;;;1.63;;
10134;SDS011;5107;48.850;8.924;2023-12-22T01:27:10;4.80;;;1.10;;
10134;SDS011;5107;48.850;8.924;2023-12-22T01:29:36;2.10;;;1.07;;
10134;SDS011;5107;48.850;8.924;2023-12-22T01:32:01;3.97;;;1.70;;
10134;SDS011;5107;48.850;8.924;2023-12-22T01:34:26;4.03;;;1.00;;
10134;SDS011;5107;48.850;8.924;2023-12-22T01:36:52;2.80;;;0.90;;
10134;SDS011;5107;48.850;8.924;2023-12-22T01:39:17;2.50;;;0.70;;
10134;SDS011;5107;48.850;8.924;2023-12-22T01:41:43;2.83;;;1.30;;
10134;SDS011;5107;48.850;8.924;2023-12-22T01:44:08;2.20;;;1.00;;
10134;SDS011;5107;48.850;8.924;2023-12-22T01:46:34;2.30;;;0.67;;
10134;SDS011;5107;48.850;8.924;2023-12-22T01:49:01;3.50;;;0.93;;
10134;SDS011;5107;48.850;8.924;2023-12-22T01:51:28;1.60;;;0.70;;
10134;SDS011;5107;48.850;8.924;2023-12-22T01:53:54;3.87;;;0.63;;
10134;SDS011;5107;48.850;8.924;2023-12-22T01:56:20;1.10;;;0.67;;
10134;SDS011;5107;48.850;8.924;2023-12-22T01:58:45;0.97;;;0.77;;
10134;SDS011;5107;48.850;8.924;2023-12-22T02:01:15;2.37;;;0.73;;
10134;SDS011;5107;48.850;8.924;2023-12-22T02:03:41;1.90;;;0.60;;
10134;SDS011;5107;48.850;8.924;2023-12-22T02:06:07;1.27;;;0.70;;
10134;SDS011;5107;48.850;8.924;2023-12-22T02:08:32;1.17;;;0.60;;
10134;SDS011;5107;48.850;8.924;2023-12-22T02:10:58;2.17;;;0.87;;
10134;SDS011;5107;48.850;8.924;2023-12-22T02:13:23;1.67;;;0.87;;
10134;SDS011;5107;48.850;8.924;2023-12-22T02:15:51;1.97;;;0.90;;
10134;SDS011;5107;48.850;8.924;2023-12-22T02:18:25;2.87;;;1.10;;
10134;SDS011;5107;48.850;8.924;2023-12-22T02:20:57;2.40;;;0.87;;
10134;SDS011;5107;48.850;8.924;2023-12-22T02:23:22;1.50;;;0.60;;
10134;SDS011;5107;48.850;8.924;2023-12-22T02:25:48;2.13;;;0.80;;
10134;SDS011;5107;48.850;8.924;2023-12-22T02:28:19;2.47;;;0.80;;
10134;SDS011;5107;48.850;8.924;2023-12-22T02:33:19;6.57;;;1.47;;
10134;SDS011;5107;48.850;8.924;2023-12-22T02:35:48;4.80;;;1.20;;
10134;SDS011;5107;48.850;8.924;2023-12-22T02:38:14;4.50;;;1.40;;
10134;SDS011;5107;48.850;8.924;2023-12-22T02:40:41;3.23;;;1.27;;
10134;SDS011;5107;48.850;8.924;2023-12-22T02:43:07;4.90;;;1.10;;
10134;SDS011;5107;48.850;8.924;2023-12-22T02:45:33;3.33;;;1.03;;
10134;SDS011;5107;48.850;8.924;2023-12-22T02:47:59;4.03;;;1.27;;
10134;SDS011;5107;48.850;8.924;2023-12-22T02:50:25;2.77;;;1.00;;
10134;SDS011;5107;48.850;8.924;2023-12-22T02:52:50;3.00;;;1.10;;
10134;SDS011;5107;48.850;8.924;2023-12-22T02:55:15;2.73;;;1.30;;
10134;SDS011;5107;48.850;8.924;2023-12-22T02:57:41;6.93;;;1.53;;
10134;SDS011;5107;48.850;8.924;2023-12-22T03:00:07;4.30;;;1.40;;
10134;SDS011;5107;48.850;8.924;2023-12-22T03:02:35;4.93;;;1.30;;
10134;SDS011;5107;48.850;8.924;2023-12-22T03:05:04;7.40;;;1.00;;
10134;SDS011;5107;48.850;8.924;2023-12-22T03:07:30;4.43;;;1.10;;
10134;SDS011;5107;48.850;8.924;2023-12-22T03:09:55;2.63;;;0.97;;
10134;SDS011;5107;48.850;8.924;2023-12-22T03:12:23;3.20;;;1.17;;
10134;SDS011;5107;48.850;8.924;2023-12-22T03:14:48;4.83;;;0.97;;
10134;SDS011;5107;48.850;8.924;2023-12-22T03:17:14;5.37;;;1.37;;
10134;SDS011;5107;48.850;8.924;2023-12-22T03:19:39;4.77;;;1.00;;
10134;SDS011;5107;48.850;8.924;2023-12-22T03:22:05;8.23;;;1.20;;
10134;SDS011;5107;48.850;8.924;2023-12-22T03:24:30;2.63;;;0.97;;
10134;SDS011;5107;48.850;8.924;2023-12-22T03:26:55;1.47;;;0.80;;
10134;SDS011;5107;48.850;8.924;2023-12-22T03:29:21;2.50;;;1.10;;
10134;SDS011;5107;48.850;8.924;2023-12-22T03:31:46;2.77;;;1.17;;
10134;SDS011;5107;48.850;8.924;2023-12-22T03:34:12;2.00;;;1.10;;
10134;SDS011;5107;48.850;8.924;2023-12-22T03:36:40;5.57;;;1.10;;
10134;SDS011;5107;48.850;8.924;2023-12-22T03:39:06;7.87;;;1.53;;
10134;SDS011;5107;48.850;8.924;2023-12-22T03:41:31;0.93;;;0.80;;
10134;SDS011;5107;48.850;8.924;2023-12-22T03:43:59;2.00;;;1.10;;
10134;SDS011;5107;48.850;8.924;2023-12-22T03:46:25;2.80;;;1.10;;
10134;SDS011;5107;48.850;8.924;2023-12-22T03:48:50;4.23;;;1.17;;
10134;SDS011;5107;48.850;8.924;2023-12-22T03:51:16;2.53;;;1.10;;
10134;SDS011;5107;48.850;8.924;2023-12-22T03:53:41;4.00;;;1.27;;
10134;SDS011;5107;48.850;8.924;2023-12-22T03:56:07;3.17;;;1.37;;
10134;SDS011;5107;48.850;8.924;2023-12-22T03:58:43;4.97;;;2.00;;
10134;SDS011;5107;48.850;8.924;2023-12-22T04:01:09;2.83;;;1.27;;
10134;SDS011;5107;48.850;8.924;2023-12-22T04:03:34;5.67;;;1.23;;
10134;SDS011;5107;48.850;8.924;2023-12-22T04:06:03;5.47;;;1.23;;
10134;SDS011;5107;48.850;8.924;2023-12-22T04:08:28;7.00;;;1.73;;
10134;SDS011;5107;48.850;8.924;2023-12-22T04:10:54;8.90;;;1.37;;
10134;SDS011;5107;48.850;8.924;2023-12-22T04:13:19;6.60;;;1.80;;
10134;SDS011;5107;48.850;8.924;2023-12-22T04:15:44;6.33;;;1.70;;
10134;SDS011;5107;48.850;8.924;2023-12-22T04:18:10;2.10;;;1.20;;
10134;SDS011;5107;48.850;8.924;2023-12-22T04:20:35;2.70;;;1.10;;
10134;SDS011;5107;48.850;8.924;2023-12-22T04:23:00;4.57;;;1.10;;
10134;SDS011;5107;48.850;8.924;2023-12-22T04:25:26;4.70;;;1.10;;
10134;SDS011;5107;48.850;8.924;2023-12-22T04:27:51;4.97;;;1.77;;
10134;SDS011;5107;48.850;8.924;2023-12-22T04:30:17;3.63;;;1.23;;
10134;SDS011;5107;48.850;8.924;2023-12-22T04:32:43;4.40;;;1.60;;
10134;SDS011;5107;48.850;8.924;2023-12-22T04:35:08;5.77;;;1.37;;
10134;SDS011;5107;48.850;8.924;2023-12-22T04:37:34;2.90;;;1.20;;
10134;SDS011;5107;48.850;8.924;2023-12-22T04:39:59;5.13;;;1.27;;
10134;SDS011;5107;48.850;8.924;2023-12-22T04:42:24;2.90;;;1.20;;
10134;SDS011;5107;48.850;8.924;2023-12-22T04:44:53;3.27;;;0.83;;
10134;SDS011;5107;48.850;8.924;2023-12-22T04:47:18;3.73;;;1.30;;
10134;SDS011;5107;48.850;8.924;2023-12-22T04:49:44;1.23;;;0.77;;
10134;SDS011;5107;48.850;8.924;2023-12-22T04:52:10;7.00;;;1.60;;
10134;SDS011;5107;48.850;8.924;2023-12-22T04:54:36;4.57;;;1.17;;
10134;SDS011;5107;48.850;8.924;2023-12-22T04:57:01;5.00;;;1.50;;
10134;SDS011;5107;48.850;8.924;2023-12-22T04:59:27;6.13;;;2.00;;
10134;SDS011;5107;48.850;8.924;2023-12-22T05:01:52;6.27;;;1.50;;
10134;SDS011;5107;48.850;8.924;2023-12-22T05:04:18;8.83;;;1.80;;
10134;SDS011;5107;48.850;8.924;2023-12-22T05:06:43;6.20;;;1.70;;
10134;SDS011;5107;48.850;8.924;2023-12-22T05:09:10;7.53;;;1.80;;
10134;SDS011;5107;48.850;8.924;2023-12-22T05:11:35;5.43;;;1.47;;
10134;SDS011;5107;48.850;8.924;2023-12-22T05:14:01;7.77;;;1.67;;
10134;SDS011;5107;48.850;8.924;2023-12-22T05:16:29;4.97;;;1.60;;
10134;SDS011;5107;48.850;8.924;2023-12-22T05:18:56;10.40;;;2.30;;
10134;SDS011;5107;48.850;8.924;2023-12-22T05:21:24;5.03;;;1.40;;
10134;SDS011;5107;48.850;8.924;2023-12-22T05:23:50;9.33;;;2.33;;
10134;SDS011;5107;48.850;8.924;2023-12-22T05:26:16;6.83;;;1.53;;
10134;SDS011;5107;48.850;8.924;2023-12-22T05:28:42;4.93;;;1.27;;
10134;SDS011;5107;48.850;8.924;2023-12-22T05:31:08;7.30;;;2.10;;
10134;SDS011;5107;48.850;8.924;2023-12-22T05:33:33;7.37;;;2.10;;
10134;SDS011;5107;48.850;8.924;2023-12-22T05:35:58;9.20;;;1.43;;
10134;SDS011;5107;48.850;8.924;2023-12-22T05:38:24;8.70;;;1.77;;
10134;SDS011;5107;48.850;8.924;2023-12-22T05:40:52;9.87;;;2.17;;
10134;SDS011;5107;48.850;8.924;2023-12-22T05:43:17;9.53;;;2.77;;
10134;SDS011;5107;48.850;8.924;2023-12-22T05:45:42;6.73;;;1.90;;
10134;SDS011;5107;48.850;8.924;2023-12-22T05:48:07;8.03;;;1.90;;
10134;SDS011;5107;48.850;8.924;2023-12-22T05:50:33;9.97;;;2.00;;
10134;SDS011;5107;48.850;8.924;2023-12-22T05:52:58;7.80;;;2.00;;
10134;SDS011;5107;48.850;8.924;2023-12-22T05:55:26;8.60;;;1.93;;
10134;SDS011;5107;48.850;8.924;2023-12-22T05:57:52;8.37;;;1.80;;
10134;SDS011;5107;48.850;8.924;2023-12-22T06:00:18;3.43;;;1.73;;
10134;SDS011;5107;48.850;8.924;2023-12-22T06:02:44;4.33;;;2.03;;
10134;SDS011;5107;48.850;8.924;2023-12-22T06:05:09;9.17;;;1.70;;
10134;SDS011;5107;48.850;8.924;2023-12-22T06:07:35;7.00;;;1.80;;
10134;SDS011;5107;48.850;8.924;2023-12-22T06:10:00;11.37;;;2.30;;
10134;SDS011;5107;48.850;8.924;2023-12-22T06:12:25;5.37;;;1.80;;
10134;SDS011;5107;48.850;8.924;2023-12-22T06:14:50;6.47;;;1.87;;
10134;SDS011;5107;48.850;8.924;2023-12-22T06:17:16;5.53;;;1.60;;
10134;SDS011;5107;48.850;8.924;2023-12-22T06:19:41;9.67;;;2.33;;
10134;SDS011;5107;48.850;8.924;2023-12-22T06:22:09;7.30;;;1.80;;
10134;SDS011;5107;48.850;8.924;2023-12-22T06:24:35;9.57;;;2.40;;
10134;SDS011;5107;48.850;8.924;2023-12-22T06:27:01;10.30;;;2.33;;
10134;SDS011;5107;48.850;8.924;2023-12-22T06:29:26;7.93;;;1.47;;
10134;SDS011;5107;48.850;8.924;2023-12-22T06:31:52;9.30;;;1.97;;
10134;SDS011;5107;48.850;8.924;2023-12-22T06:34:17;8.57;;;2.37;;
10134;SDS011;5107;48.850;8.924;2023-12-22T06:36:45;7.73;;;2.17;;
10134;SDS011;5107;48.850;8.924;2023-12-22T06:39:10;5.60;;;1.80;;
10134;SDS011;5107;48.850;8.924;2023-12-22T06:41:36;5.47;;;1.80;;
10134;SDS011;5107;48.850;8.924;2023-12-22T06:44:01;12.50;;;1.63;;
10134;SDS011;5107;48.850;8.924;2023-12-22T06:46:27;6.13;;;2.17;;
10134;SDS011;5107;48.850;8.924;2023-12-22T06:48:54;7.17;;;1.80;;
10134;SDS011;5107;48.850;8.924;2023-12-22T06:51:27;6.60;;;2.00;;
10134;SDS011;5107;48.850;8.924;2023-12-22T06:53:55;4.83;;;1.73;;
10134;SDS011;5107;48.850;8.924;2023-12-22T06:56:22;5.83;;;1.70;;
10134;SDS011;5107;48.850;8.924;2023-12-22T06:58:49;7.23;;;1.43;;
10134;SDS011;5107;48.850;8.924;2023-12-22T07:03:45;4.63;;;1.37;;
10134;SDS011;5107;48.850;8.924;2023-12-22T07:06:14;9.10;;;2.30;;
10134;SDS011;5107;48.850;8.924;2023-12-22T07:08:40;12.40;;;2.17;;
10134;SDS011;5107;48.850;8.924;2023-12-22T07:11:07;4.53;;;1.87;;
10134;SDS011;5107;48.850;8.924;2023-12-22T07:13:33;8.27;;;2.53;;
10134;SDS011;5107;48.850;8.924;2023-12-22T07:15:58;13.30;;;2.13;;
10134;SDS011;5107;48.850;8.924;2023-12-22T07:18:23;5.30;;;2.03;;
10134;SDS011;5107;48.850;8.924;2023-12-22T07:20:50;7.40;;;2.10;;
10134;SDS011;5107;48.850;8.924;2023-12-22T07:23:15;6.23;;;1.80;;
10134;SDS011;5107;48.850;8.924;2023-12-22T07:25:41;8.83;;;2.00;;
10134;SDS011;5107;48.850;8.924;2023-12-22T07:28:06;9.23;;;2.27;;
10134;SDS011;5107;48.850;8.924;2023-12-22T07:30:31;7.63;;;1.90;;
10134;SDS011;5107;48.850;8.924;2023-12-22T07:32:57;7.30;;;1.90;;
10134;SDS011;5107;48.850;8.924;2023-12-22T07:35:22;6.70;;;2.07;;
10134;SDS011;5107;48.850;8.924;2023-12-22T07:37:47;3.43;;;1.33;;
10134;SDS011;5107;48.850;8.924;2023-12-22T07:40:13;5.50;;;1.77;;
10134;SDS011;5107;48.850;8.924;2023-12-22T07:42:38;6.30;;;1.53;;
10134;SDS011;5107;48.850;8.924;2023-12-22T07:45:04;17.07;;;2.20;;
10134;SDS011;5107;48.850;8.924;2023-12-22T07:47:30;7.53;;;1.50;;
10134;SDS011;5107;48.850;8.924;2023-12-22T07:49:55;5.60;;;1.40;;
10134;SDS011;5107;48.850;8.924;2023-12-22T07:52:20;6.37;;;1.97;;
10134;SDS011;5107;48.850;8.924;2023-12-22T07:54:46;8.30;;;1.70;;
10134;SDS011;5107;48.850;8.924;2023-12-22T07:57:12;5.70;;;1.50;;
10134;SDS011;5107;48.850;8.924;2023-12-22T07:59:37;4.43;;;1.43;;
10134;SDS011;5107;48.850;8.924;2023-12-22T08:02:03;6.10;;;1.63;;
10134;SDS011;5107;48.850;8.924;2023-12-22T08:04:28;4.43;;;1.70;;
10134;SDS011;5107;48.850;8.924;2023-12-22T08:06:53;8.10;;;1.70;;
10134;SDS011;5107;48.850;8.924;2023-12-22T08:09:19;6.77;;;1.60;;
10134;SDS011;5107;48.850;8.924;2023-12-22T08:11:44;10.17;;;2.07;;
10134;SDS011;5107;48.850;8.924;2023-12-22T08:14:12;5.37;;;2.00;;
10134;SDS011;5107;48.850;8.924;2023-12-22T08:16:38;8.60;;;3.10;;
10134;SDS011;5107;48.850;8.924;2023-12-22T08:19:03;6.37;;;2.10;;
10134;SDS011;5107;48.850;8.924;2023-12-22T08:21:29;11.40;;;2.47;;
10134;SDS011;5107;48.850;8.924;2023-12-22T08:23:54;12.07;;;2.33;;
10134;SDS011;5107;48.850;8.924;2023-12-22T08:26:20;15.37;;;3.33;;
10134;SDS011;5107;48.850;8.924;2023-12-22T08:28:49;7.03;;;2.70;;
10134;SDS011;5107;48.850;8.924;2023-12-22T08:31:14;5.03;;;2.10;;
10134;SDS011;5107;48.850;8.924;2023-12-22T08:33:43;9.83;;;2.60;;
10134;SDS011;5107;48.850;8.924;2023-12-22T08:36:08;8.50;;;2.00;;
10134;SDS011;5107;48.850;8.924;2023-12-22T08:38:37;7.20;;;2.00;;
10134;SDS011;5107;48.850;8.924;2023-12-22T08:41:05;13.87;;;2.50;;
10134;SDS011;5107;48.850;8.924;2023-12-22T08:43:32;5.53;;;2.00;;
10134;SDS011;5107;48.850;8.924;2023-12-22T08:45:57;13.43;;;2.83;;
10134;SDS011;5107;48.850;8.924;2023-12-22T08:48:25;11.13;;;2.80;;
10134;SDS011;5107;48.850;8.924;2023-12-22T08:50:51;7.80;;;2.30;;
10134;SDS011;5107;48.850;8.924;2023-12-22T08:53:16;10.50;;;2.23;;
10134;SDS011;5107;48.850;8.924;2023-12-22T08:55:41;8.97;;;2.10;;
10134;SDS011;5107;48.850;8.924;2023-12-22T08:58:07;8.70;;;2.13;;
10134;SDS011;5107;48.850;8.924;2023-12-22T09:00:32;7.63;;;2.77;;
10134;SDS011;5107;48.850;8.924;2023-12-22T09:02:57;11.93;;;2.27;;
10134;SDS011;5107;48.850;8.924;2023-12-22T09:05:23;6.80;;;1.80;;
10134;SDS011;5107;48.850;8.924;2023-12-22T09:07:48;12.73;;;2.57;;
10134;SDS011;5107;48.850;8.924;2023-12-22T09:10:13;9.53;;;2.40;;
10134;SDS011;5107;48.850;8.924;2023-12-22T09:12:39;17.47;;;3.03;;
10134;SDS011;5107;48.850;8.924;2023-12-22T09:15:04;11.73;;;2.57;;
10134;SDS011;5107;48.850;8.924;2023-12-22T09:17:30;11.30;;;2.40;;
10134;SDS011;5107;48.850;8.924;2023-12-22T09:19:58;7.30;;;2.63;;
10134;SDS011;5107;48.850;8.924;2023-12-22T09:22:23;9.57;;;2.40;;
10134;SDS011;5107;48.850;8.924;2023-12-22T09:24:49;16.13;;;2.57;;
10134;SDS011;5107;48.850;8.924;2023-12-22T09:27:14;7.73;;;2.40;;
10134;SDS011;5107;48.850;8.924;2023-12-22T09:29:40;11.20;;;2.77;;
10134;SDS011;5107;48.850;8.924;2023-12-22T09:32:05;13.30;;;2.70;;
10134;SDS011;5107;48.850;8.924;2023-12-22T09:34:30;9.03;;;2.57;;
10134;SDS011;5107;48.850;8.924;2023-12-22T09:36:56;13.73;;;2.77;;
10134;SDS011;5107;48.850;8.924;2023-12-22T09:39:21;8.30;;;1.87;;
10134;SDS011;5107;48.850;8.924;2023-12-22T09:41:50;9.87;;;2.83;;
10134;SDS011;5107;48.850;8.924;2023-12-22T09:44:20;10.13;;;2.80;;
10134;SDS011;5107;48.850;8.924;2023-12-22T09:46:49;9.87;;;2.70;;
10134;SDS011;5107;48.850;8.924;2023-12-22T09:49:18;13.00;;;2.77;;
10134;SDS011;5107;48.850;8.924;2023-12-22T09:51:45;12.63;;;2.87;;
10134;SDS011;5107;48.850;8.924;2023-12-22T09:54:11;7.57;;;2.43;;
10134;SDS011;5107;48.850;8.924;2023-12-22T09:56:38;12.00;;;2.40;;
10134;SDS011;5107;48.850;8.924;2023-12-22T09:59:10;8.30;;;2.30;;
10134;SDS011;5107;48.850;8.924;2023-12-22T10:01:41;12.37;;;2.70;;
10134;SDS011;5107;48.850;8.924;2023-12-22T10:04:10;16.23;;;3.37;;
10134;SDS011;5107;48.850;8.924;2023-12-22T10:06:36;11.43;;;2.93;;
10134;SDS011;5107;48.850;8.924;2023-12-22T10:09:02;13.27;;;2.20;;
10134;SDS011;5107;48.850;8.924;2023-12-22T10:11:31;7.93;;;2.47;;
10134;SDS011;5107;48.850;8.924;2023-12-22T10:13:57;12.57;;;2.83;;
10134;SDS011;5107;48.850;8.924;2023-12-22T10:16:24;14.27;;;3.30;;
10134;SDS011;5107;48.850;8.924;2023-12-22T10:18:50;9.30;;;2.43;;
10134;SDS011;5107;48.850;8.924;2023-12-22T10:21:16;8.43;;;2.30;;
10134;SDS011;5107;48.850;8.924;2023-12-22T10:23:41;12.43;;;2.73;;
10134;SDS011;5107;48.850;8.924;2023-12-22T10:26:06;10.17;;;2.53;;
10134;SDS011;5107;48.850;8.924;2023-12-22T10:28:35;6.70;;;2.13;;
10134;SDS011;5107;48.850;8.924;2023-12-22T10:31:01;4.80;;;1.80;;
10134;SDS011;5107;48.850;8.924;2023-12-22T10:33:31;7.40;;;2.00;;
10134;SDS011;5107;48.850;8.924;2023-12-22T10:35:58;6.20;;;2.17;;
10134;SDS011;5107;48.850;8.924;2023-12-22T10:38:33;8.57;;;1.80;;
10134;SDS011;5107;48.850;8.924;2023-12-22T10:40:59;6.97;;;2.10;;
10134;SDS011;5107;48.850;8.924;2023-12-22T10:43:26;9.73;;;2.20;;
10134;SDS011;5107;48.850;8.924;2023-12-22T10:45:52;7.07;;;1.97;;
10134;SDS011;5107;48.850;8.924;2023-12-22T10:48:17;10.90;;;2.13;;
10134;SDS011;5107;48.850;8.924;2023-12-22T10:50:43;5.70;;;1.80;;
10134;SDS011;5107;48.850;8.924;2023-12-22T10:53:09;6.70;;;1.80;;
10134;SDS011;5107;48.850;8.924;2023-12-22T10:55:38;5.47;;;1.83;;
10134;SDS011;5107;48.850;8.924;2023-12-22T10:58:04;6.10;;;1.73;;
10134;SDS011;5107;48.850;8.924;2023-12-22T11:00:32;10.83;;;2.57;;
10134;SDS011;5107;48.850;8.924;2023-12-22T11:02:59;5.07;;;1.23;;
10134;SDS011;5107;48.850;8.924;2023-12-22T11:05:31;4.90;;;1.80;;
10134;SDS011;5107;48.850;8.924;2023-12-22T11:07:58;6.17;;;1.83;;
10134;SDS011;5107;48.850;8.924;2023-12-22T11:10:27;5.47;;;1.77;;
10134;SDS011;5107;48.850;8.924;2023-12-22T11:12:54;6.90;;;2.43;;
10134;SDS011;5107;48.850;8.924;2023-12-22T11:15:22;5.97;;;2.97;;
10134;SDS011;5107;48.850;8.924;2023-12-22T11:17:52;8.03;;;1.87;;
10134;SDS011;5107;48.850;8.924;2023-12-22T11:20:17;3.53;;;1.73;;
10134;SDS011;5107;48.850;8.924;2023-12-22T11:22:43;4.20;;;2.07;;
10134;SDS011;5107;48.850;8.924;2023-12-22T11:25:09;5.70;;;1.70;;
10134;SDS011;5107;48.850;8.924;2023-12-22T11:27:38;3.50;;;1.63;;
10134;SDS011;5107;48.850;8.924;2023-12-22T11:30:05;5.17;;;1.20;;
10134;SDS011;5107;48.850;8.924;2023-12-22T11:32:36;4.63;;;1.20;;
10134;SDS011;5107;48.850;8.924;2023-12-22T11:35:04;2.07;;;1.40;;
10134;SDS011;5107;48.850;8.924;2023-12-22T11:37:34;3.10;;;1.20;;
10134;SDS011;5107;48.850;8.924;2023-12-22T11:40:01;4.87;;;0.90;;
10134;SDS011;5107;48.850;8.924;2023-12-22T11:42:31;2.90;;;1.10;;
10134;SDS011;5107;48.850;8.924;2023-12-22T11:45:03;2.57;;;1.37;;
10134;SDS011;5107;48.850;8.924;2023-12-22T11:47:29;1.13;;;0.70;;
10134;SDS011;5107;48.850;8.924;2023-12-22T11:49:55;1.33;;;0.80;;
10134;SDS011;5107;48.850;8.924;2023-12-22T11:52:27;5.17;;;1.30;;
10134;SDS011;5107;48.850;8.924;2023-12-22T11:54:56;2.93;;;0.90;;
10134;SDS011;5107;48.850;8.924;2023-12-22T11:59:57;1.67;;;0.77;;
10134;SDS011;5107;48.850;8.924;2023-12-22T12:02:32;2.77;;;0.90;;
10134;SDS011;5107;48.850;8.924;2023-12-22T12:04:58;2.70;;;0.70;;
10134;SDS011;5107;48.850;8.924;2023-12-22T12:07:42;2.17;;;1.00;;
10134;SDS011;5107;48.850;8.924;2023-12-22T12:15:30;1.47;;;0.60;;
10134;SDS011;5107;48.850;8.924;2023-12-22T12:17:58;1.13;;;0.67;;
10134;SDS011;5107;48.850;8.924;2023-12-22T12:20:24;0.77;;;0.50;;
10134;SDS011;5107;48.850;8.924;2023-12-22T12:22:50;1.20;;;0.97;;
10134;SDS011;5107;48.850;8.924;2023-12-22T12:25:16;1.07;;;0.40;;
10134;SDS011;5107;48.850;8.924;2023-12-22T12:27:41;2.30;;;0.53;;
10134;SDS011;5107;48.850;8.924;2023-12-22T12:30:16;0.97;;;0.57;;
10134;SDS011;5107;48.850;8.924;2023-12-22T12:32:42;0.27;;;0.27;;
10134;SDS011;5107;48.850;8.924;2023-12-22T12:35:11;1.77;;;0.70;;
10134;SDS011;5107;48.850;8.924;2023-12-22T12:37:37;0.33;;;0.33;;
10134;SDS011;5107;48.850;8.924;2023-12-22T12:40:03;2.00;;;0.63;;
10134;SDS011;5107;48.850;8.924;2023-12-22T12:42:36;0.83;;;0.60;;
10134;SDS011;5107;48.850;8.924;2023-12-22T12:45:06;0.90;;;0.63;;
10134;SDS011;5107;48.850;8.924;2023-12-22T12:47:32;2.90;;;0.30;;
10134;SDS011;5107;48.850;8.924;2023-12-22T12:49:58;0.30;;;0.30;;
10134;SDS011;5107;48.850;8.924;2023-12-22T12:52:25;1.90;;;0.53;;
10134;SDS011;5107;48.850;8.924;2023-12-22T12:54:51;0.20;;;0.20;;
10134;SDS011;5107;48.850;8.924;2023-12-22T12:57:17;0.37;;;0.30;;
10134;SDS011;5107;48.850;8.924;2023-12-22T12:59:46;1.07;;;0.40;;
10134;SDS011;5107;48.850;8.924;2023-12-22T13:02:17;0.23;;;0.23;;
10134;SDS011;5107;48.850;8.924;2023-12-22T13:04:44;0.50;;;0.10;;
10134;SDS011;5107;48.850;8.924;2023-12-22T13:07:09;0.50;;;0.30;;
10134;SDS011;5107;48.850;8.924;2023-12-22T13:09:35;0.73;;;0.40;;
10134;SDS011;5107;48.850;8.924;2023-12-22T13:12:01;0.30;;;0.30;;
10134;SDS011;5107;48.850;8.924;2023-12-22T13:14:28;0.40;;;0.40;;
10134;SDS011;5107;48.850;8.924;2023-12-22T13:16:53;1.33;;;0.30;;
10134;SDS011;5107;48.850;8.924;2023-12-22T13:19:21;0.40;;;0.40;;
10134;SDS011;5107;48.850;8.924;2023-12-22T13:21:49;1.40;;;0.60;;
10134;SDS011;5107;48.850;8.924;2023-12-22T13:24:15;0.60;;;0.50;;
10134;SDS011;5107;48.850;8.924;2023-12-22T13:26:42;0.77;;;0.50;;
10134;SDS011;5107;48.850;8.924;2023-12-22T13:29:08;3.33;;;1.30;;
10134;SDS011;5107;48.850;8.924;2023-12-22T13:31:41;1.03;;;0.73;;
10134;SDS011;5107;48.850;8.924;2023-12-22T13:34:11;0.83;;;0.57;;
10134;SDS011;5107;48.850;8.924;2023-12-22T13:36:38;0.57;;;0.57;;
10134;SDS011;5107;48.850;8.924;2023-12-22T13:39:04;0.70;;;0.53;;
10134;SDS011;5107;48.850;8.924;2023-12-22T13:41:48;0.30;;;0.30;;
10134;SDS011;5107;48.850;8.924;2023-12-22T13:44:14;0.90;;;0.90;;
10134;SDS011;5107;48.850;8.924;2023-12-22T13:46:39;2.33;;;1.40;;
10134;SDS011;5107;48.850;8.924;2023-12-22T13:49:16;1.67;;;1.20;;
10134;SDS011;5107;48.850;8.924;2023-12-22T13:51:42;1.10;;;0.90;;
10134;SDS011;5107;48.850;8.924;2023-12-22T13:54:09;1.10;;;1.00;;
10134;SDS011;5107;48.850;8.924;2023-12-22T13:56:38;1.40;;;1.07;;
10134;SDS011;5107;48.850;8.924;2023-12-22T13:59:07;1.17;;;0.90;;
10134;SDS011;5107;48.850;8.924;2023-12-22T14:01:33;0.83;;;0.83;;
10134;SDS011;5107;48.850;8.924;2023-12-22T14:04:01;0.73;;;0.60;;
10134;SDS011;5107;48.850;8.924;2023-12-22T14:06:27;1.90;;;1.53;;
10134;SDS011;5107;48.850;8.924;2023-12-22T14:08:55;4.50;;;2.40;;
10134;SDS011;5107;48.850;8.924;2023-12-22T14:11:21;1.67;;;1.03;;
10134;SDS011;5107;48.850;8.924;2023-12-22T14:13:50;3.20;;;1.80;;
10134;SDS011;5107;48.850;8.924;2023-12-22T14:16:15;1.20;;;1.10;;
10134;SDS011;5107;48.850;8.924;2023-12-22T14:18:41;1.60;;;1.33;;
10134;SDS011;5107;48.850;8.924;2023-12-22T14:21:07;0.70;;;0.70;;
10134;SDS011;5107;48.850;8.924;2023-12-22T14:23:33;2.53;;;1.90;;
10134;SDS011;5107;48.850;8.924;2023-12-22T14:25:58;2.10;;;1.03;;
10134;SDS011;5107;48.850;8.924;2023-12-22T14:28:23;1.07;;;0.97;;
10134;SDS011;5107;48.850;8.924;2023-12-22T14:30:49;1.97;;;0.70;;
10134;SDS011;5107;48.850;8.924;2023-12-22T14:33:17;0.87;;;0.87;;
10134;SDS011;5107;48.850;8.924;2023-12-22T14:35:42;3.17;;;2.40;;
10134;SDS011;5107;48.850;8.924;2023-12-22T14:38:07;1.43;;;0.83;;
10134;SDS011;5107;48.850;8.924;2023-12-22T14:40:33;0.50;;;0.50;;
10134;SDS011;5107;48.850;8.924;2023-12-22T14:42:58;0.70;;;0.60;;
10134;SDS011;5107;48.850;8.924;2023-12-22T14:45:24;1.20;;;0.93;;
10134;SDS011;5107;48.850;8.924;2023-12-22T14:47:52;0.80;;;0.80;;
10134;SDS011;5107;48.850;8.924;2023-12-22T14:50:18;0.70;;;0.70;;
10134;SDS011;5107;48.850;8.924;2023-12-22T14:52:44;0.60;;;0.60;;
10134;SDS011;5107;48.850;8.924;2023-12-22T14:55:09;1.30;;;0.80;;
10134;SDS011;5107;48.850;8.924;2023-12-22T14:57:35;0.60;;;0.60;;
10134;SDS011;5107;48.850;8.924;2023-12-22T15:00:00;0.97;;;0.60;;
10134;SDS011;5107;48.850;8.924;2023-12-22T15:02:26;0.70;;;0.70;;
10134;SDS011;5107;48.850;8.924;2023-12-22T15:04:51;0.53;;;0.53;;
10134;SDS011;5107;48.850;8.924;2023-12-22T15:07:17;0.70;;;0.37;;
10134;SDS011;5107;48.850;8.924;2023-12-22T15:09:44;1.20;;;0.70;;